Time;durP1;ratioP1;P1;durP2;ratioP2;P2;SDS_P1;SDS_P2;PMS_P1;PMS_P2;Temp;Humidity;BMP_temperature;BMP_pressure;BME280_temperature;BME280_humidity;BME280_pressure;Samples;Min_cycle;Max_cycle;Signal;HPM_P1;HPM_P2
2021/06/02 00:03:51;;;;;;;0.80;0.80;;;;;;;-144.31;100.00;75204.13;5008504;28;20048;-73
2021/06/02 00:06:21;;;;;;;0.80;0.80;;;;;;;-144.31;100.00;75218.09;5004740;28;20034;-70
2021/06/02 00:08:46;;;;;;;0.80;0.80;;;;;;;-144.31;100.00;75234.06;5003393;28;20044;-72
2021/06/02 00:11:12;;;;;;;0.80;0.80;;;;;;;-144.31;100.00;75242.06;5008840;28;20087;-73
2021/06/02 00:13:38;;;;;;;0.80;0.80;;;;;;;-144.31;100.00;75250.06;5015950;28;20046;-72
2021/06/02 00:16:03;;;;;;;0.70;0.70;;;;;;;-144.31;100.00;75248.06;5000553;28;20126;-73
2021/06/02 00:18:29;;;;;;;0.65;0.65;;;;;;;-144.31;100.00;75254.06;5003823;28;20408;-73
2021/06/02 00:20:56;;;;;;;0.88;0.82;;;;;;;-144.31;100.00;75266.03;5006677;28;20107;-72
2021/06/02 00:23:25;;;;;;;0.75;0.75;;;;;;;-144.31;100.00;75270.03;5010279;28;20040;-73
2021/06/02 00:25:53;;;;;;;0.80;0.80;;;;;;;-144.31;100.00;75276.03;5023658;28;20034;-72
2021/06/02 00:28:19;;;;;;;0.80;0.80;;;;;;;-144.31;100.00;75286.00;5015335;28;20036;-73
2021/06/02 00:30:48;;;;;;;0.70;0.70;;;;;;;-144.31;100.00;75274.03;5008238;28;20045;-73
2021/06/02 00:33:15;;;;;;;0.70;0.70;;;;;;;-144.31;100.00;75282.00;5001286;28;20112;-73
2021/06/02 00:35:44;;;;;;;0.60;0.60;;;;;;;-144.31;100.00;75296.00;5001335;28;20057;-73
2021/06/02 00:38:12;;;;;;;0.80;0.80;;;;;;;-144.31;100.00;75303.97;5007088;28;20049;-73
2021/06/02 00:40:44;;;;;;;1.00;1.00;;;;;;;-144.31;100.00;75307.97;5015654;28;20053;-73
2021/06/02 00:43:09;;;;;;;0.90;0.90;;;;;;;-144.31;100.00;75311.97;5008622;28;20488;-73
2021/06/02 00:45:37;;;;;;;0.90;0.90;;;;;;;-144.31;100.00;75315.97;5002587;28;20072;-73
2021/06/02 00:48:06;;;;;;;1.00;1.00;;;;;;;-144.31;100.00;75309.97;5008136;28;20038;-73
2021/06/02 00:50:31;;;;;;;0.98;0.98;;;;;;;-144.31;100.00;75309.97;5008000;28;20044;-73
2021/06/02 00:52:57;;;;;;;0.80;0.80;;;;;;;-144.31;100.00;75313.97;5021701;28;20038;-73
2021/06/02 00:55:23;;;;;;;0.80;0.80;;;;;;;-144.31;100.00;75313.97;5006736;28;20038;-73
2021/06/02 00:57:53;;;;;;;0.82;0.82;;;;;;;-144.31;100.00;75313.97;5007156;28;20030;-73
2021/06/02 01:00:19;;;;;;;0.80;0.80;;;;;;;-144.31;100.00;75307.97;4988519;28;20041;-73
2021/06/02 01:02:50;;;;;;;0.70;0.70;;;;;;;-144.31;100.00;75301.97;5002917;28;20048;-73
2021/06/02 01:05:18;;;;;;;0.80;0.80;;;;;;;-144.31;100.00;75315.97;4999270;28;20026;-73
2021/06/02 01:07:44;;;;;;;0.77;0.77;;;;;;;-144.31;100.00;75321.94;5013410;28;20065;-73
2021/06/02 01:10:12;;;;;;;0.80;0.80;;;;;;;-144.31;100.00;75319.94;5004473;28;20021;-73
2021/06/02 01:12:39;;;;;;;;;;;;;;;-144.31;100.00;75325.94;5004780;28;20030;-72
2021/06/02 01:15:05;;;;;;;0.85;0.85;;;;;;;-144.31;100.00;75339.94;5021178;28;19918;-73
2021/06/02 01:17:32;;;;;;;0.80;0.80;;;;;;;-144.31;100.00;75359.91;5007454;28;20041;-73
2021/06/02 01:19:59;;;;;;;0.70;0.70;;;;;;;-144.31;100.00;75369.88;5003972;28;20049;-73
2021/06/02 01:22:25;;;;;;;;;;;;;;;-144.31;100.00;75373.88;5000188;28;20041;-73
2021/06/02 01:24:51;;;;;;;0.88;0.88;;;;;;;-144.31;100.00;75375.88;4994532;28;19921;-73
2021/06/02 01:27:17;;;;;;;0.70;0.70;;;;;;;-144.31;100.00;75381.88;5006083;28;20080;-72
2021/06/02 01:29:46;;;;;;;0.80;0.80;;;;;;;-144.31;100.00;75387.84;5001075;28;20040;-72
2021/06/02 01:32:44;;;;;;;0.75;0.75;;;;;;;-144.31;100.00;75401.84;5004297;28;20111;-73
2021/06/02 01:35:41;;;;;;;0.80;0.80;;;;;;;-144.31;100.00;75405.84;5018591;28;20073;-73
2021/06/02 01:38:28;;;;;;;0.80;0.80;;;;;;;-144.31;100.00;75415.81;5007826;28;20026;-73
2021/06/02 01:41:19;;;;;;;0.80;0.80;;;;;;;-144.31;100.00;75415.81;5002159;28;20055;-74
2021/06/02 01:44:09;;;;;;;0.80;0.80;;;;;;;-144.31;100.00;75431.81;5018126;28;20034;-74
2021/06/02 01:47:01;;;;;;;0.75;0.75;;;;;;;-144.31;100.00;75443.78;5006843;28;20029;-73
2021/06/02 01:49:35;;;;;;;0.80;0.80;;;;;;;-144.31;100.00;75457.75;5000884;28;20026;-74
2021/06/02 01:52:29;;;;;;;0.80;0.80;;;;;;;-144.31;100.00;75457.75;4998028;28;20099;-73
2021/06/02 01:55:00;;;;;;;0.70;0.70;;;;;;;-144.31;100.00;75457.75;5005698;28;20492;-74
2021/06/02 01:57:27;;;;;;;0.85;0.85;;;;;;;-144.31;100.00;75465.75;5005577;28;20140;-72
2021/06/02 02:00:12;;;;;;;;;;;;;;;-144.31;100.00;75465.75;4988228;28;20126;-72
2021/06/02 02:03:09;;;;;;;1.00;1.00;;;;;;;-144.31;100.00;75471.75;5004437;28;19925;-73
2021/06/02 02:06:05;;;;;;;1.00;1.00;;;;;;;-144.31;100.00;75475.75;5004405;28;20034;-73
2021/06/02 02:08:54;;;;;;;0.85;0.85;;;;;;;-144.31;100.00;75481.72;5017906;28;20405;-73
2021/06/02 02:11:37;;;;;;;0.98;0.98;;;;;;;-144.31;100.00;75483.72;4985126;28;20471;-73
2021/06/02 02:14:42;;;;;;;1.23;1.13;;;;;;;-144.31;100.00;75479.72;4985083;28;20038;-72
2021/06/02 02:17:29;;;;;;;1.05;1.05;;;;;;;-144.31;100.00;75491.72;5008413;28;20042;-73
2021/06/02 02:20:08;;;;;;;1.00;1.00;;;;;;;-144.31;100.00;75493.72;5009902;28;20034;-72
2021/06/02 02:22:55;;;;;;;1.20;1.20;;;;;;;-144.31;100.00;75505.69;5005259;28;20041;-72
2021/06/02 02:25:35;;;;;;;1.00;1.00;;;;;;;-144.31;100.00;75507.69;5010032;28;20057;-73
2021/06/02 02:28:14;;;;;;;1.00;1.00;;;;;;;-144.31;100.00;75521.69;5006755;28;20040;-73
2021/06/02 02:30:58;;;;;;;0.90;0.90;;;;;;;-144.31;100.00;75523.69;5007649;28;20451;-71
2021/06/02 02:33:42;;;;;;;0.90;0.90;;;;;;;-144.31;100.00;75531.66;5020064;28;20030;-72
2021/06/02 02:36:15;;;;;;;0.90;0.90;;;;;;;-144.31;100.00;75533.66;5009391;28;20065;-73
2021/06/02 02:39:20;;;;;;;0.90;0.90;;;;;;;-144.31;100.00;75541.66;4988950;28;20038;-73
2021/06/02 02:42:13;;;;;;;0.80;0.80;;;;;;;-144.31;100.00;75535.66;4956267;28;20125;-72
2021/06/02 02:44:46;;;;;;;0.90;0.90;;;;;;;-144.31;100.00;75535.66;5008648;28;20042;-72
2021/06/02 02:47:21;;;;;;;1.00;1.00;;;;;;;-144.31;100.00;75525.66;5006797;28;20120;-72
2021/06/02 02:50:14;;;;;;;0.90;0.90;;;;;;;-144.31;100.00;75547.63;4999077;28;20042;-73
2021/06/02 02:53:25;;;;;;;1.00;1.00;;;;;;;-144.31;100.00;75561.63;5021841;28;20045;-73
2021/06/02 02:56:02;;;;;;;1.02;1.02;;;;;;;-144.31;100.00;75569.63;5003981;28;20049;-72
2021/06/02 02:58:45;;;;;;;0.90;0.90;;;;;;;-144.31;100.00;75569.63;5008712;28;20034;-72
2021/06/02 03:01:20;;;;;;;1.10;1.10;;;;;;;-144.31;100.00;75561.63;5003337;28;20038;-74
2021/06/02 03:03:48;;;;;;;1.08;1.08;;;;;;;-144.31;100.00;75577.59;4989720;28;20040;-73
2021/06/02 03:06:30;;;;;;;1.23;1.13;;;;;;;-144.31;100.00;75573.59;4997744;28;20037;-73
2021/06/02 03:09:21;;;;;;;1.17;1.10;;;;;;;-144.31;100.00;75575.59;5004815;28;20514;-73
2021/06/02 03:11:58;;;;;;;0.90;0.90;;;;;;;-144.31;100.00;75585.59;5005328;28;20297;-73
2021/06/02 03:14:55;;;;;;;1.00;1.00;;;;;;;-144.31;100.00;75595.56;5008472;28;20499;-73
2021/06/02 03:17:41;;;;;;;0.90;0.90;;;;;;;-144.31;100.00;75599.56;5006889;28;20114;-73
2021/06/02 03:20:23;;;;;;;1.00;1.00;;;;;;;-144.31;100.00;75601.56;5007040;28;20267;-73
2021/06/02 03:23:32;;;;;;;0.90;0.90;;;;;;;-144.31;100.00;75601.56;5008955;28;20033;-73
2021/06/02 03:26:08;;;;;;;0.90;0.90;;;;;;;-144.31;100.00;75591.59;4929568;29;20047;-72
2021/06/02 03:28:49;;;;;;;0.90;0.90;;;;;;;-144.31;100.00;75595.56;4994006;28;20053;-74
2021/06/02 03:31:17;;;;;;;0.90;0.90;;;;;;;-144.31;100.00;75593.59;4998805;28;20122;-73
2021/06/02 03:33:57;;;;;;;0.90;0.90;;;;;;;-144.31;100.00;75597.56;5015759;28;20389;-73
2021/06/02 03:36:41;;;;;;;0.95;0.95;;;;;;;-144.31;100.00;75597.56;5005037;28;20469;-73
2021/06/02 03:39:17;;;;;;;1.10;1.10;;;;;;;-144.31;100.00;75613.56;4991172;28;20034;-74
2021/06/02 03:41:49;;;;;;;1.10;1.10;;;;;;;-144.31;100.00;75617.56;5006350;28;20037;-73
2021/06/02 03:44:14;;;;;;;1.10;1.10;;;;;;;-144.31;100.00;75617.56;5007348;28;20036;-73
2021/06/02 03:47:02;;;;;;;1.10;1.10;;;;;;;-144.31;100.00;75617.56;5005339;28;20041;-72
2021/06/02 03:49:32;;;;;;;;;;;;;;;-144.31;100.00;75611.56;5001368;28;20049;-73
2021/06/02 03:52:05;;;;;;;1.10;1.10;;;;;;;-144.31;100.00;75617.56;5004366;28;20000;-73
2021/06/02 03:54:53;;;;;;;0.98;0.98;;;;;;;-144.31;100.00;75615.56;5003492;28;20100;-73
2021/06/02 03:57:30;;;;;;;0.90;0.90;;;;;;;-144.31;100.00;75611.56;5005837;28;20581;-72
2021/06/02 04:00:05;;;;;;;0.90;0.90;;;;;;;-144.31;100.00;75607.56;5009142;28;20033;-73
2021/06/02 04:02:55;;;;;;;0.90;0.90;;;;;;;-144.31;100.00;75611.56;5008343;28;20476;-74
2021/06/02 04:05:33;;;;;;;0.80;0.80;;;;;;;-144.31;100.00;75617.56;4991609;28;20046;-73
2021/06/02 04:08:23;;;;;;;0.90;0.90;;;;;;;-144.31;100.00;75613.56;5007343;28;20030;-73
2021/06/02 04:11:26;;;;;;;0.80;0.80;;;;;;;-144.31;100.00;75605.56;4982349;28;20072;-73
2021/06/02 04:13:54;;;;;;;0.80;0.80;;;;;;;-144.31;100.00;75599.56;5021018;28;20026;-73
2021/06/02 04:16:37;;;;;;;0.90;0.90;;;;;;;-144.31;100.00;75589.59;5004921;28;20041;-73
2021/06/02 04:19:14;;;;;;;0.90;0.90;;;;;;;-144.31;100.00;75575.59;5005647;28;20057;-72
2021/06/02 04:21:43;;;;;;;0.93;0.93;;;;;;;-144.31;100.00;75545.66;5007912;28;20034;-72
2021/06/02 04:24:12;;;;;;;0.98;0.98;;;;;;;-144.31;100.00;75513.69;5005510;28;20025;-73
2021/06/02 04:26:38;;;;;;;0.90;0.90;;;;;;;-144.31;100.00;75525.66;5005589;28;20049;-72
2021/06/02 04:29:08;;;;;;;1.00;1.00;;;;;;;-144.31;100.00;75511.69;5011526;28;20042;-72
2021/06/02 04:31:37;;;;;;;1.17;1.17;;;;;;;-144.31;100.00;75495.72;5006501;28;20034;-72
2021/06/02 04:34:03;;;;;;;0.90;0.90;;;;;;;-144.31;100.00;75475.75;5007501;28;20423;-73
2021/06/02 04:36:30;;;;;;;1.30;1.20;;;;;;;-144.31;100.00;75469.75;5007330;28;20026;-73
2021/06/02 04:38:58;;;;;;;1.00;1.00;;;;;;;-144.31;100.00;75451.78;5008622;28;20119;-72
2021/06/02 04:41:27;;;;;;;1.00;1.00;;;;;;;-144.31;100.00;75437.78;5007658;28;20033;-72
2021/06/02 04:43:57;;;;;;;1.05;1.05;;;;;;;-144.31;100.00;75419.81;5004772;28;20479;-72
2021/06/02 04:46:23;;;;;;;1.00;1.00;;;;;;;-144.31;100.00;75405.84;5005552;28;20037;-73
2021/06/02 04:48:54;;;;;;;0.90;0.90;;;;;;;-144.31;100.00;75385.88;5005224;28;20030;-73
2021/06/02 04:51:19;;;;;;;0.93;0.93;;;;;;;-144.31;100.00;75373.88;5001958;28;20048;-72
2021/06/02 04:54:23;;;;;;;0.90;0.90;;;;;;;-144.31;100.00;75357.91;5005000;28;20038;-72
2021/06/02 04:56:56;;;;;;;0.88;0.88;;;;;;;-144.31;100.00;75331.94;5000138;28;20065;-72
2021/06/02 04:59:59;;;;;;;0.90;0.90;;;;;;;-144.31;100.00;75305.97;4991801;28;20084;-72
2021/06/02 05:02:39;;;;;;;1.00;1.00;;;;;;;-144.31;100.00;75282.00;5005975;28;20113;-73
2021/06/02 05:05:32;;;;;;;0.95;0.95;;;;;;;-144.31;100.00;75266.03;5002255;28;20049;-73
2021/06/02 05:08:42;;;;;;;0.90;0.90;;;;;;;-144.31;100.00;75234.06;5000407;28;20049;-73
2021/06/02 05:11:29;;;;;;;0.75;0.75;;;;;;;-144.31;100.00;75202.13;4998634;28;20033;-73
2021/06/02 05:14:23;;;;;;;0.80;0.80;;;;;;;-144.31;100.00;75184.16;5000004;28;20036;-72
2021/06/02 05:17:03;;;;;;;0.90;0.90;;;;;;;-144.31;100.00;75158.19;5016287;28;20507;-74
2021/06/02 05:20:16;;;;;;;0.80;0.80;;;;;;;-144.31;100.00;75120.25;5004249;28;20125;-72
2021/06/02 05:23:10;;;;;;;0.77;0.77;;;;;;;-144.31;100.00;75076.31;5004052;28;20044;-74
2021/06/02 05:25:54;;;;;;;0.80;0.80;;;;;;;-144.31;100.00;75038.34;5019370;28;20128;-72
2021/06/02 05:28:41;;;;;;;0.80;0.80;;;;;;;-144.31;100.00;75010.41;5004620;28;20558;-72
2021/06/02 05:31:19;;;;;;;;;;;;;;;-144.31;100.00;74972.47;5002974;28;20599;-72
2021/06/02 05:34:04;;;;;;;0.70;0.70;;;;;;;-144.31;100.00;74946.50;5007606;28;20349;-75
2021/06/02 05:36:39;;;;;;;0.70;0.70;;;;;;;-144.31;100.00;74900.56;5005198;28;20033;-72
2021/06/02 05:39:26;;;;;;;0.80;0.80;;;;;;;-144.31;100.00;74864.63;5003388;28;20040;-74
2021/06/02 05:42:07;;;;;;;0.60;0.60;;;;;;;-144.31;100.00;74824.69;4997132;28;20041;-71
2021/06/02 05:44:59;;;;;;;0.70;0.70;;;;;;;-144.31;100.00;74770.75;4995769;28;20446;-72
2021/06/02 05:47:48;;;;;;;0.70;0.70;;;;;;;-144.31;100.00;74738.81;4983090;28;20030;-75
2021/06/02 05:50:51;;;;;;;0.73;0.73;;;;;;;-144.31;100.00;74696.88;5005895;28;20030;-75
2021/06/02 05:53:25;;;;;;;0.80;0.80;;;;;;;-144.31;100.00;74650.94;5002495;28;20033;-73
2021/06/02 05:56:21;;;;;;;0.70;0.70;;;;;;;-144.31;100.00;74621.00;5003440;28;20513;-73
2021/06/02 05:59:25;;;;;;;3.00;1.42;;;;;;;-144.31;100.00;74595.03;5023032;28;20034;-73
2021/06/02 06:02:22;;;;;;;0.90;0.90;;;;;;;-144.31;100.00;74567.09;4991914;28;20116;-73
2021/06/02 06:04:57;;;;;;;;;;;;;;;-144.31;100.00;74527.16;5004935;28;20042;-76
2021/06/02 06:07:34;;;;;;;1.15;1.05;;;;;;;-144.31;100.00;74389.38;5000452;28;19991;-77
2021/06/02 06:10:27;;;;;;;0.60;0.60;;;;;;;-144.31;100.00;74319.50;5015392;28;20061;-77
2021/06/02 06:13:25;;;;;;;0.95;0.90;;;;;;;-144.31;100.00;74225.66;4994361;28;20459;-77
2021/06/02 06:16:28;;;;;;;1.23;0.90;;;;;;;-144.31;100.00;74093.88;5006564;28;20045;-77
2021/06/02 06:19:10;;;;;;;0.68;0.68;;;;;;;-144.31;100.00;74063.91;5022464;28;20064;-75
2021/06/02 06:22:04;;;;;;;0.77;0.63;;;;;;;-144.31;100.00;74022.00;5011510;28;20034;-77
2021/06/02 06:24:53;;;;;;;0.95;0.68;;;;;;;-144.31;100.00;73944.13;5000291;28;20045;-77
2021/06/02 06:27:34;;;;;;;1.70;0.98;;;;;;;-144.31;100.00;73912.19;5002706;28;20432;-76
2021/06/02 06:30:06;;;;;;;1.92;0.82;;;;;;;-144.31;100.00;73922.16;5022450;28;20404;-77
2021/06/02 06:32:33;;;;;;;0.68;0.55;;;;;;;-144.31;100.00;74041.97;5000409;28;20041;-77
2021/06/02 06:35:01;;;;;;;0.40;0.40;;;;;;;-144.31;100.00;74043.94;4983300;28;20037;-77
2021/06/02 06:37:32;;;;;;;1.10;0.75;;;;;;;-144.31;100.00;73990.03;5022214;28;20427;-77
2021/06/02 06:40:06;;;;;;;1.23;0.60;;;;;;;-144.31;100.00;73974.06;5022284;28;20030;-76
2021/06/02 06:42:39;;;;;;;0.50;0.50;;;;;;;-144.31;100.00;73994.03;4998116;28;20072;-77
2021/06/02 06:45:14;;;;;;;1.20;0.85;;;;;;;-144.31;100.00;73886.22;4984905;28;20484;-77
2021/06/02 06:47:41;;;;;;;0.80;0.80;;;;;;;-144.31;100.00;73858.28;5006019;28;20384;-77
2021/06/02 06:50:10;;;;;;;0.70;0.70;;;;;;;-144.31;100.00;73840.31;4979846;28;20034;-77
2021/06/02 06:52:37;;;;;;;1.30;0.70;;;;;;;-144.31;100.00;73836.31;5005632;28;20848;-77
2021/06/02 06:55:04;;;;;;;;;;;;;;;-144.31;100.00;73892.22;5001677;28;20038;-77
2021/06/02 06:57:30;;;;;;;;;;;;;;;-144.31;100.00;73912.19;5009260;28;19913;-77
2021/06/02 06:59:56;;;;;;;0.88;0.80;;;;;;;-144.31;100.00;73804.38;4991465;28;20394;-77
2021/06/02 07:02:22;;;;;;;1.30;0.80;;;;;;;-144.31;100.00;73762.44;5011673;28;20396;-77
2021/06/02 07:04:48;;;;;;;0.50;0.50;;;;;;;-144.31;100.00;73840.31;5004920;28;20038;-78
2021/06/02 07:07:15;;;;;;;2.65;0.98;;;;;;;-144.31;100.00;73702.56;5009830;28;20054;-77
2021/06/02 07:09:40;;;;;;;0.47;0.47;;;;;;;-144.31;100.00;73704.56;4992288;28;20350;-77
2021/06/02 07:12:09;;;;;;;1.95;1.02;;;;;;;-144.31;100.00;73624.69;4978295;28;20450;-77
2021/06/02 07:14:37;;;;;;;1.17;0.67;;;;;;;-144.31;100.00;73618.72;5006675;28;20128;-77
2021/06/02 07:17:05;;;;;;;2.35;1.00;;;;;;;-144.31;100.00;73606.72;4995203;28;20073;-77
2021/06/02 07:19:32;;;;;;;0.50;0.50;;;;;;;-144.31;100.00;73662.63;5007530;28;20026;-77
2021/06/02 07:21:58;;;;;;;0.20;0.20;;;;;;;-144.31;100.00;73606.72;4988209;28;20042;-77
2021/06/02 07:24:25;;;;;;;1.20;0.80;;;;;;;-144.31;100.00;73568.81;5004639;28;20480;-77
2021/06/02 07:26:51;;;;;;;0.35;0.35;;;;;;;-144.31;100.00;73632.69;5004491;28;20044;-77
2021/06/02 07:29:20;;;;;;;0.50;0.50;;;;;;;-144.31;100.00;73636.69;5004222;28;20088;-77
2021/06/02 07:31:50;;;;;;;0.30;0.30;;;;;;;-144.31;100.00;73610.72;5000796;28;20104;-77
2021/06/02 07:34:16;;;;;;;0.63;0.30;;;;;;;-144.31;100.00;73580.78;5012504;28;20036;-77
2021/06/02 07:36:42;;;;;;;0.30;0.30;;;;;;;-144.31;100.00;73562.81;5004929;28;20064;-77
2021/06/02 07:39:09;;;;;;;0.70;0.40;;;;;;;-144.31;100.00;73620.69;5004611;28;20030;-77
2021/06/02 07:41:35;;;;;;;0.75;0.40;;;;;;;-144.31;100.00;73550.84;5003410;28;20825;-77
2021/06/02 07:44:03;;;;;;;0.60;0.40;;;;;;;-144.31;100.00;73532.88;5002314;28;20029;-75
2021/06/02 07:46:30;;;;;;;0.30;0.30;;;;;;;-144.31;100.00;73620.69;5002285;28;20080;-74
2021/06/02 07:48:56;;;;;;;0.52;0.38;;;;;;;-144.31;100.00;73552.84;5003425;28;20034;-75
2021/06/02 07:51:22;;;;;;;0.30;0.30;;;;;;;-144.31;100.00;73540.84;5005538;28;20026;-75
2021/06/02 07:53:48;;;;;;;0.30;0.30;;;;;;;-144.31;100.00;73572.78;5001364;28;20714;-74
2021/06/02 07:56:13;;;;;;;0.40;0.40;;;;;;;-144.31;100.00;73590.75;5012107;28;20061;-75
2021/06/02 07:58:39;;;;;;;0.30;0.30;;;;;;;-144.31;100.00;73530.88;5013956;28;20026;-73
2021/06/02 08:01:05;;;;;;;0.65;0.40;;;;;;;-144.31;100.00;73488.94;5027341;28;20070;-74
2021/06/02 08:03:30;;;;;;;0.30;0.30;;;;;;;-144.31;100.00;73516.91;5022253;28;20052;-75
2021/06/02 08:05:56;;;;;;;0.40;0.40;;;;;;;-144.31;100.00;73496.94;5008642;28;20045;-74
2021/06/02 08:08:21;;;;;;;0.40;0.40;;;;;;;-144.31;100.00;73470.97;5004097;28;20036;-75
2021/06/02 08:10:47;;;;;;;0.40;0.40;;;;;;;-144.31;100.00;73445.03;5000074;28;20388;-75
2021/06/02 08:13:15;;;;;;;0.20;0.20;;;;;;;-144.31;100.00;73421.06;5004779;28;20046;-75
2021/06/02 08:15:43;;;;;;;0.28;0.28;;;;;;;-144.31;100.00;73415.09;5001929;28;20294;-75
2021/06/02 08:18:09;;;;;;;0.30;0.30;;;;;;;-144.31;100.00;73421.06;5003836;28;20379;-74
2021/06/02 08:20:34;;;;;;;0.30;0.30;;;;;;;-144.31;100.00;73361.19;5004974;28;20396;-75
2021/06/02 08:23:00;;;;;;;0.38;0.30;;;;;;;-144.31;100.00;73375.16;5006283;28;20111;-74
2021/06/02 08:25:25;;;;;;;0.35;0.30;;;;;;;-144.31;100.00;73361.19;5004635;28;20072;-75
2021/06/02 08:27:51;;;;;;;0.20;0.20;;;;;;;-144.31;100.00;73385.13;5004723;28;20038;-75
2021/06/02 08:30:17;;;;;;;0.38;0.38;;;;;;;-144.31;100.00;73337.22;5006179;28;20045;-74
2021/06/02 08:32:43;;;;;;;0.20;0.20;;;;;;;-144.31;100.00;73325.25;5005910;28;20077;-74
2021/06/02 08:35:10;;;;;;;0.28;0.28;;;;;;;-144.31;100.00;73331.25;5001659;28;20042;-74
2021/06/02 08:37:38;;;;;;;0.22;0.22;;;;;;;-144.31;100.00;73315.28;5002145;28;20047;-75
2021/06/02 08:40:06;;;;;;;0.45;0.32;;;;;;;-144.31;100.00;73399.13;5017678;28;20038;-75
2021/06/02 08:42:32;;;;;;;0.25;0.25;;;;;;;-144.31;100.00;73343.22;5001170;28;20061;-75
2021/06/02 08:45:00;;;;;;;0.30;0.22;;;;;;;-144.31;100.00;73371.16;5004992;28;20030;-74
2021/06/02 08:47:26;;;;;;;0.63;0.40;;;;;;;-144.31;100.00;73323.25;5000492;28;20132;-74
2021/06/02 08:49:53;;;;;;;0.50;0.50;;;;;;;-144.31;100.00;73285.34;5007491;28;20502;-74
2021/06/02 08:52:19;;;;;;;0.20;0.20;;;;;;;-144.31;100.00;73255.38;5000695;28;20128;-74
2021/06/02 08:54:45;;;;;;;0.22;0.20;;;;;;;-144.31;100.00;73241.41;5005160;28;20156;-74
2021/06/02 08:57:10;;;;;;;0.30;0.30;;;;;;;-144.31;97.58;73239.41;5003703;28;20104;-74
2021/06/02 08:59:36;;;;;;;0.20;0.20;;;;;;;-144.31;91.84;73221.44;5003359;28;20037;-74
2021/06/02 09:02:08;;;;;;;0.43;0.32;;;;;;;-144.31;85.57;73201.50;4998487;28;20036;-74
2021/06/02 09:04:34;;;;;;;0.45;0.30;;;;;;;-144.31;76.33;73171.56;5000705;28;20026;-75
2021/06/02 09:07:05;;;;;;;0.20;0.20;;;;;;;-144.31;74.57;73131.63;5001546;28;20164;-74
2021/06/02 09:09:32;;;;;;;0.30;0.30;;;;;;;-144.31;73.52;73103.69;5014476;28;20152;-75
2021/06/02 09:12:07;;;;;;;0.10;0.10;;;;;;;-144.31;70.58;73077.72;5009353;28;20123;-73
2021/06/02 09:14:37;;;;;;;0.30;0.30;;;;;;;-144.31;66.33;73063.75;5001892;28;20080;-73
2021/06/02 09:17:08;;;;;;;0.32;0.28;;;;;;;-144.31;64.41;73117.66;4992152;28;20034;-73
2021/06/02 09:19:43;;;;;;;0.40;0.40;;;;;;;-144.31;63.22;73151.59;5002915;28;20034;-73
2021/06/02 09:22:16;;;;;;;0.20;0.20;;;;;;;-144.31;61.86;73125.63;4992054;28;20045;-73
2021/06/02 09:24:47;;;;;;;0.80;0.45;;;;;;;-144.31;63.65;73163.56;4997317;28;20042;-75
2021/06/02 09:27:17;;;;;;;0.45;0.40;;;;;;;-144.31;63.30;73109.66;4994877;28;20064;-75
2021/06/02 09:29:48;;;;;;;0.30;0.30;;;;;;;-144.31;57.85;73081.72;4992267;28;20041;-73
2021/06/02 09:32:17;;;;;;;0.20;0.20;;;;;;;-144.31;57.03;73103.69;5002040;28;20041;-72
2021/06/02 09:34:45;;;;;;;0.45;0.30;;;;;;;-144.31;51.82;73143.59;5000275;28;20121;-75
2021/06/02 09:37:11;;;;;;;0.28;0.28;;;;;;;-144.31;56.83;73053.78;5016633;28;20421;-76
2021/06/02 09:39:49;;;;;;;0.27;0.27;;;;;;;-144.31;51.08;73075.75;5013913;28;20485;-76
2021/06/02 09:42:28;;;;;;;0.32;0.30;;;;;;;-144.31;50.83;73127.63;4986099;28;20114;-76
2021/06/02 09:45:13;;;;;;;0.30;0.30;;;;;;;-144.31;51.26;73129.63;5003589;28;20046;-77
2021/06/02 09:47:44;;;;;;;0.30;0.30;;;;;;;-144.31;55.00;73051.78;5002349;28;20555;-76
2021/06/02 09:50:11;;;;;;;0.25;0.25;;;;;;;-144.31;47.59;72997.91;4999791;28;20042;-76
2021/06/02 09:52:47;;;;;;;;;;;;;;;-144.31;49.61;72953.97;5002255;28;20025;-76
2021/06/02 09:55:26;;;;;;;0.13;0.13;;;;;;;-144.31;50.07;72995.91;5000499;28;19918;-76
2021/06/02 09:58:01;;;;;;;0.28;0.28;;;;;;;-144.31;47.32;72938.00;4988091;28;20038;-73
2021/06/02 10:00:27;;;;;;;0.38;0.32;;;;;;;-144.31;46.26;72904.09;4999390;28;20022;-73
2021/06/02 10:03:18;;;;;;;0.90;0.40;;;;;;;-144.31;45.74;73003.88;4976027;28;20645;-73
2021/06/02 10:05:47;;;;;;;0.45;0.30;;;;;;;-144.31;44.66;72983.91;5001508;28;20372;-72
2021/06/02 10:08:23;;;;;;;0.25;0.25;;;;;;;-144.31;42.84;72969.94;4996641;28;20034;-72
2021/06/02 10:10:52;;;;;;;0.38;0.38;;;;;;;-144.31;43.41;72918.06;4995152;28;20038;-73
2021/06/02 10:13:20;;;;;;;0.30;0.30;;;;;;;-144.31;44.31;72892.09;4999548;28;20034;-73
2021/06/02 10:15:46;;;;;;;0.60;0.55;;;;;;;-144.31;46.69;72910.06;5016414;28;20496;-73
2021/06/02 10:18:30;;;;;;;0.45;0.38;;;;;;;-144.31;40.60;72912.06;5004423;28;20080;-73
2021/06/02 10:21:00;;;;;;;0.20;0.20;;;;;;;-144.31;39.26;72898.09;4986374;28;20421;-73
2021/06/02 10:23:26;;;;;;;0.20;0.20;;;;;;;-144.31;39.08;72864.16;4986694;28;20062;-73
2021/06/02 10:25:53;;;;;;;0.23;0.20;;;;;;;-144.31;39.92;72834.22;4986256;28;20034;-73
2021/06/02 10:28:21;;;;;;;0.20;0.20;;;;;;;-144.31;39.37;72824.25;4985568;28;20323;-73
2021/06/02 10:30:49;;;;;;;0.20;0.20;;;;;;;-144.31;38.86;72822.25;4986258;28;20142;-73
2021/06/02 10:33:15;;;;;;;0.20;0.20;;;;;;;-144.31;38.87;72840.22;4995625;28;20034;-72
2021/06/02 10:35:40;;;;;;;0.20;0.20;;;;;;;-144.31;38.58;72824.25;4993823;28;20431;-73
2021/06/02 10:38:07;;;;;;;0.30;0.30;;;;;;;-144.31;39.29;72834.22;4990061;28;20045;-73
2021/06/02 10:40:35;;;;;;;;;;;;;;;-144.31;39.66;72834.22;5003371;28;20030;-73
2021/06/02 10:43:08;;;;;;;0.20;0.10;;;;;;;-144.31;42.73;72874.13;4988909;28;20001;-73
2021/06/02 10:45:45;;;;;;;0.20;0.20;;;;;;;-144.31;39.92;72886.13;5004657;28;20042;-73
2021/06/02 10:48:12;;;;;;;;;;;;;;;-144.31;37.48;72746.41;5000802;28;20038;-73
2021/06/02 10:50:45;;;;;;;0.30;0.30;;;;;;;-144.31;37.41;72748.41;5005257;28;19927;-73
2021/06/02 10:53:25;;;;;;;0.20;0.20;;;;;;;-144.31;37.34;72782.31;5015660;28;20129;-73
2021/06/02 10:55:52;;;;;;;0.30;0.20;;;;;;;-144.31;34.41;72770.34;5001905;28;20125;-73
2021/06/02 10:58:27;;;;;;;0.20;0.20;;;;;;;-144.31;33.43;72710.47;4999105;28;20042;-73
2021/06/02 11:01:14;;;;;;;0.20;0.20;;;;;;;-144.31;31.54;72804.28;5000028;28;20125;-73
2021/06/02 11:03:44;;;;;;;0.30;0.30;;;;;;;-144.31;31.19;72856.19;4992419;28;20056;-72
2021/06/02 11:06:12;;;;;;;0.15;0.15;;;;;;;-144.31;33.38;72784.31;4998059;28;20073;-73
2021/06/02 11:08:50;;;;;;;0.10;0.10;;;;;;;-144.31;31.57;72740.41;4995275;28;20050;-72
2021/06/02 11:11:29;;;;;;;0.20;0.20;;;;;;;-144.31;31.72;72714.47;4979469;28;20052;-73
2021/06/02 11:14:13;;;;;;;0.20;0.20;;;;;;;-144.31;32.52;72726.44;4996742;28;20057;-73
2021/06/02 11:16:42;;;;;;;0.13;0.13;;;;;;;-144.31;31.31;72684.53;4998743;28;20046;-73
2021/06/02 11:19:42;;;;;;;0.20;0.20;;;;;;;-144.31;28.24;72790.31;4997682;28;20138;-74
2021/06/02 11:22:38;;;;;;;0.20;0.20;;;;;;;-144.31;27.49;72654.59;4993422;28;20050;-74
2021/06/02 11:25:22;;;;;;;0.30;0.30;;;;;;;-144.31;26.79;72451.03;4985997;28;20555;-74
2021/06/02 11:27:47;;;;;;;0.10;0.10;;;;;;;-144.31;25.86;72486.94;5003067;28;20042;-73
2021/06/02 11:30:16;;;;;;;0.10;0.10;;;;;;;-144.31;27.50;72317.31;4999517;28;20412;-73
2021/06/02 11:32:49;;;;;;;0.10;0.10;;;;;;;-144.31;25.64;72255.44;5001377;28;20042;-74
2021/06/02 11:35:16;;;;;;;0.03;0.03;;;;;;;-144.31;26.24;72373.19;4998638;28;21077;-74
2021/06/02 11:37:44;;;;;;;0.10;0.08;;;;;;;-144.31;24.55;72165.63;5002588;28;20060;-73
2021/06/02 11:40:11;;;;;;;0.00;0.00;;;;;;;-144.31;23.43;72147.69;4995351;28;20049;-74
2021/06/02 11:42:46;;;;;;;0.08;0.08;;;;;;;-144.31;26.44;72393.13;4997064;28;20405;-73
2021/06/02 11:45:13;;;;;;;0.10;0.10;;;;;;;-144.31;25.46;72143.69;4998874;28;20050;-73
2021/06/02 11:47:54;;;;;;;0.10;0.10;;;;;;;-144.31;24.60;71978.06;5003971;28;20547;-74
2021/06/02 11:50:22;;;;;;;0.00;0.00;;;;;;;-144.31;23.15;71876.28;5003666;28;20045;-74
2021/06/02 11:52:57;;;;;;;0.10;0.10;;;;;;;-144.31;22.64;71864.31;4987789;28;20049;-74